Time;durP1;ratioP1;P1;durP2;ratioP2;P2;SDS_P1;SDS_P2;PMS_P1;PMS_P2;Temp;Humidity;BMP_temperature;BMP_pressure;BME280_temperature;BME280_humidity;BME280_pressure;Samples;Min_cycle;Max_cycle;Signal;HPM_P1;HPM_P2
2022/06/15 00:00:13;;;;;;;6.18;4.40;;;23.90;99.90;;;;;;5011322;28;20049;-70
2022/06/15 00:03:18;;;;;;;5.45;4.18;;;23.80;99.90;;;;;;5011262;28;20053;-69
2022/06/15 00:06:28;;;;;;;5.53;4.22;;;23.70;99.90;;;;;;5031102;28;20053;-69
2022/06/15 00:09:32;;;;;;;8.88;4.55;;;23.60;99.90;;;;;;5027087;28;20036;-69
2022/06/15 00:12:37;;;;;;;7.18;4.45;;;23.60;99.90;;;;;;5026249;28;20072;-69
2022/06/15 00:15:41;;;;;;;6.78;4.40;;;23.60;99.90;;;;;;5031571;28;20040;-69
2022/06/15 00:18:47;;;;;;;17.92;3.78;;;23.70;99.90;;;;;;5011375;28;20053;-69
2022/06/15 00:21:51;;;;;;;7.00;4.85;;;23.70;99.90;;;;;;5019996;28;20392;-70
2022/06/15 00:24:55;;;;;;;5.07;4.57;;;23.70;99.90;;;;;;5030165;28;20487;-69
2022/06/15 00:27:59;;;;;;;8.02;4.88;;;23.60;99.90;;;;;;5029445;28;20111;-69
2022/06/15 00:31:05;;;;;;;4.85;3.95;;;23.50;99.90;;;;;;5028969;28;20048;-69
2022/06/15 00:34:09;;;;;;;6.85;4.65;;;23.50;99.90;;;;;;5030262;28;20048;-69
2022/06/15 00:37:13;;;;;;;6.82;4.50;;;23.50;99.90;;;;;;5010779;28;20377;-69
2022/06/15 00:40:17;;;;;;;14.98;5.20;;;23.50;99.90;;;;;;5019696;28;20048;-69
2022/06/15 00:43:35;;;;;;;11.38;4.75;;;23.40;99.90;;;;;;5029012;28;20400;-69
2022/06/15 00:46:42;;;;;;;9.15;5.05;;;23.30;99.90;;;;;;5009856;28;20041;-69
2022/06/15 00:50:09;;;;;;;6.63;4.80;;;23.30;99.90;;;;;;5024322;28;20036;-70
2022/06/15 00:53:13;;;;;;;6.50;4.97;;;23.20;99.90;;;;;;5019303;28;20041;-69
2022/06/15 00:56:19;;;;;;;6.68;4.70;;;23.20;99.90;;;;;;5010254;28;20061;-69
2022/06/15 00:59:34;;;;;;;11.95;5.60;;;23.20;99.90;;;;;;5029517;28;20036;-69
2022/06/15 01:02:40;;;;;;;6.07;4.50;;;23.10;99.90;;;;;;5024228;28;20526;-69
2022/06/15 01:06:26;;;;;;;8.68;5.10;;;23.10;99.90;;;;;;5028969;28;20044;-69
2022/06/15 01:09:35;;;;;;;7.25;4.57;;;23.10;99.90;;;;;;5030514;28;20033;-69
2022/06/15 01:12:57;;;;;;;5.97;4.68;;;23.00;99.90;;;;;;5028373;28;20040;-69
2022/06/15 01:16:15;;;;;;;10.32;5.40;;;23.00;99.90;;;;;;5016427;28;20045;-69
2022/06/15 01:19:25;;;;;;;6.07;4.82;;;23.00;99.90;;;;;;5013682;28;20044;-69
2022/06/15 01:22:35;;;;;;;8.38;4.82;;;23.00;99.90;;;;;;5030038;28;20049;-69
2022/06/15 01:25:51;;;;;;;7.68;5.22;;;23.00;99.90;;;;;;5011414;28;20045;-69
2022/06/15 01:29:26;;;;;;;9.07;4.82;;;23.00;99.90;;;;;;5014097;28;20053;-69
2022/06/15 01:32:52;;;;;;;7.53;5.10;;;23.00;99.90;;;;;;5009596;28;20412;-69
2022/06/15 01:36:13;;;;;;;9.07;5.20;;;22.90;99.90;;;;;;5030159;28;20048;-69
2022/06/15 01:39:26;;;;;;;6.85;4.93;;;22.90;99.90;;;;;;5010279;28;20045;-69
2022/06/15 01:42:38;;;;;;;11.02;4.30;;;22.90;99.90;;;;;;5018874;28;20045;-69
2022/06/15 01:45:44;;;;;;;6.35;4.63;;;22.90;99.90;;;;;;5029265;28;20044;-69
2022/06/15 01:48:51;;;;;;;7.80;5.18;;;22.90;99.90;;;;;;5009626;28;20045;-69
2022/06/15 01:51:59;;;;;;;9.25;4.72;;;22.90;99.90;;;;;;5018161;28;20053;-69
2022/06/15 01:55:13;;;;;;;8.52;5.10;;;22.80;99.90;;;;;;5028358;28;20068;-69
2022/06/15 01:58:22;;;;;;;7.93;5.30;;;22.80;99.90;;;;;;5017633;28;20045;-69
2022/06/15 02:02:10;;;;;;;8.18;5.15;;;22.70;99.90;;;;;;5037582;28;20048;-69
2022/06/15 02:05:44;;;;;;;8.02;5.38;;;22.70;99.90;;;;;;4941688;28;20054;-69
2022/06/15 02:08:59;;;;;;;6.60;5.47;;;22.60;99.90;;;;;;4969946;28;20032;-69
2022/06/15 02:12:06;;;;;;;9.40;5.25;;;22.60;99.90;;;;;;5021553;28;20044;-69
2022/06/15 02:15:16;;;;;;;6.05;4.85;;;22.60;99.90;;;;;;5015780;28;20055;-69
2022/06/15 02:18:27;;;;;;;5.95;5.28;;;22.40;99.90;;;;;;5012450;28;20049;-68
2022/06/15 02:21:35;;;;;;;6.05;5.47;;;22.20;99.90;;;;;;5024179;28;20045;-69
2022/06/15 02:24:43;;;;;;;9.15;5.15;;;22.00;99.90;;;;;;5012633;28;20049;-69
2022/06/15 02:27:50;;;;;;;6.00;5.40;;;21.90;99.90;;;;;;5025016;28;20036;-69
2022/06/15 02:30:55;;;;;;;7.95;5.28;;;21.90;99.90;;;;;;5032289;28;20494;-69
2022/06/15 02:34:02;;;;;;;7.07;6.07;;;21.80;99.90;;;;;;5032554;28;20525;-69
2022/06/15 02:37:08;;;;;;;10.05;6.00;;;21.80;99.90;;;;;;5003006;28;20049;-69
2022/06/15 02:40:21;;;;;;;12.00;5.50;;;21.70;99.90;;;;;;5012329;28;20053;-69
2022/06/15 02:43:30;;;;;;;9.05;5.85;;;21.70;99.90;;;;;;5012500;28;20101;-69
2022/06/15 02:46:40;;;;;;;6.13;5.53;;;21.70;99.90;;;;;;5039641;28;20036;-69
2022/06/15 02:49:46;;;;;;;10.30;5.90;;;21.70;99.90;;;;;;5027386;28;20040;-69
2022/06/15 02:53:06;;;;;;;6.97;5.93;;;21.60;99.90;;;;;;5032027;28;20044;-69
2022/06/15 02:56:13;;;;;;;9.77;6.03;;;21.60;99.90;;;;;;5012269;28;20503;-69
2022/06/15 02:59:18;;;;;;;9.82;6.00;;;21.60;99.90;;;;;;5026933;28;20049;-69
2022/06/15 03:02:22;;;;;;;8.43;6.18;;;21.50;99.90;;;;;;5031392;28;20044;-69
2022/06/15 03:05:30;;;;;;;12.77;5.90;;;21.40;99.90;;;;;;5031771;28;20048;-69
2022/06/15 03:08:34;;;;;;;8.75;6.50;;;21.40;99.90;;;;;;5013921;28;20049;-69
2022/06/15 03:11:45;;;;;;;7.20;5.65;;;21.30;99.90;;;;;;5015733;28;20040;-69
2022/06/15 03:15:10;;;;;;;8.63;5.43;;;21.30;99.90;;;;;;5011958;28;20049;-69
2022/06/15 03:18:14;;;;;;;9.05;6.25;;;21.30;99.90;;;;;;5040320;28;20044;-69
2022/06/15 03:21:18;;;;;;;8.02;5.90;;;21.20;99.90;;;;;;5041850;28;20070;-69
2022/06/15 03:24:22;;;;;;;10.25;6.07;;;21.30;99.90;;;;;;5031508;28;20056;-69
2022/06/15 03:27:29;;;;;;;9.75;6.10;;;21.20;99.90;;;;;;5031063;28;20044;-69
2022/06/15 03:30:33;;;;;;;13.07;6.55;;;21.10;99.90;;;;;;5025830;28;20591;-69
2022/06/15 03:33:44;;;;;;;11.10;5.47;;;21.00;99.90;;;;;;5027192;28;20125;-70
2022/06/15 03:36:54;;;;;;;11.43;6.68;;;21.00;99.90;;;;;;5010809;28;20049;-69
2022/06/15 03:39:58;;;;;;;16.63;7.35;;;20.90;99.90;;;;;;5028562;28;20052;-69
2022/06/15 03:43:02;;;;;;;10.63;6.82;;;20.90;99.90;;;;;;5025203;28;20060;-69
2022/06/15 03:46:07;;;;;;;12.10;6.70;;;20.90;99.90;;;;;;5010900;28;20040;-69
2022/06/15 03:49:15;;;;;;;6.93;6.22;;;21.00;99.90;;;;;;5036582;28;20057;-70
2022/06/15 03:52:25;;;;;;;8.73;6.63;;;21.00;99.90;;;;;;5025420;28;20061;-70
2022/06/15 03:55:30;;;;;;;11.45;6.13;;;21.10;99.90;;;;;;5011532;28;20053;-70
2022/06/15 03:58:35;;;;;;;7.90;6.10;;;21.20;99.90;;;;;;5030205;28;20515;-69
2022/06/15 04:01:40;;;;;;;8.82;6.43;;;21.20;99.90;;;;;;5029304;28;20503;-70
2022/06/15 04:04:45;;;;;;;8.27;6.18;;;21.30;99.90;;;;;;5029665;28;20303;-70
2022/06/15 04:14:38;;;;;;;10.15;6.25;;;21.40;99.90;;;;;;5014741;28;20049;-69
2022/06/15 04:18:00;;;;;;;14.70;6.65;;;21.50;99.90;;;;;;5011491;28;20048;-69
2022/06/15 04:21:18;;;;;;;11.70;5.60;;;21.30;99.90;;;;;;5010792;28;20044;-70
2022/06/15 04:24:28;;;;;;;13.18;5.95;;;21.30;99.90;;;;;;5028053;28;20045;-69
2022/06/15 04:27:36;;;;;;;;;;;21.30;99.90;;;;;;5003414;28;20052;-69
2022/06/15 04:30:41;;;;;;;8.07;6.53;;;21.80;99.90;;;;;;5010635;28;19913;-68
2022/06/15 04:33:47;;;;;;;9.18;6.40;;;22.70;99.90;;;;;;5025533;28;20060;-69
2022/06/15 04:36:52;;;;;;;10.63;7.38;;;22.50;99.90;;;;;;5009726;28;20044;-69
2022/06/15 04:39:56;;;;;;;13.02;6.70;;;23.10;99.90;;;;;;5010336;28;20396;-69
2022/06/15 04:43:00;;;;;;;10.60;5.50;;;24.50;99.90;;;;;;5025472;28;20045;-69
2022/06/15 04:46:05;;;;;;;8.45;5.75;;;25.90;99.90;;;;;;5028628;28;20049;-70
2022/06/15 04:49:10;;;;;;;9.05;5.57;;;27.00;99.90;;;;;;5041744;28;20056;-69
2022/06/15 04:52:27;;;;;;;7.15;5.78;;;27.40;99.90;;;;;;5029776;28;20045;-69
2022/06/15 04:55:32;;;;;;;9.63;6.20;;;27.90;99.90;;;;;;5021562;28;20601;-69
2022/06/15 04:58:39;;;;;;;7.50;6.22;;;28.30;99.90;;;;;;5010062;28;20109;-70
2022/06/15 05:01:45;;;;;;;6.97;5.55;;;29.20;99.90;;;;;;5010223;28;20053;-69
2022/06/15 05:04:53;;;;;;;9.38;5.43;;;29.90;99.90;;;;;;5009532;28;20041;-69
2022/06/15 05:07:58;;;;;;;10.05;5.78;;;30.90;99.90;;;;;;5013628;28;20044;-69
2022/06/15 05:11:03;;;;;;;7.72;5.43;;;29.40;99.90;;;;;;5041831;28;20041;-69
2022/06/15 05:14:11;;;;;;;8.32;5.10;;;29.10;99.90;;;;;;5041356;28;20048;-69
2022/06/15 05:17:24;;;;;;;9.30;5.30;;;28.10;99.90;;;;;;5024265;28;20048;-70
2022/06/15 05:20:29;;;;;;;9.77;5.38;;;28.00;99.90;;;;;;5030341;28;20506;-70
2022/06/15 05:23:34;;;;;;;7.35;5.40;;;27.50;99.90;;;;;;5023620;28;20053;-69
2022/06/15 05:26:44;;;;;;;9.25;4.82;;;27.30;99.90;;;;;;5020847;28;20044;-70
2022/06/15 05:29:48;;;;;;;9.30;4.88;;;28.70;99.90;;;;;;5030970;28;20044;-69
2022/06/15 05:32:57;;;;;;;10.73;4.78;;;29.60;99.90;;;;;;5010965;28;20045;-69
2022/06/15 05:36:04;;;;;;;7.63;4.85;;;30.70;99.90;;;;;;5026836;28;20044;-70
2022/06/15 05:39:09;;;;;;;7.55;5.03;;;30.20;99.90;;;;;;5012460;28;20052;-70
2022/06/15 05:42:17;;;;;;;5.82;4.40;;;30.40;99.90;;;;;;5033651;28;20044;-69
2022/06/15 05:45:26;;;;;;;9.27;4.68;;;31.10;99.90;;;;;;5014369;28;20057;-69
2022/06/15 05:48:30;;;;;;;5.70;4.10;;;31.00;99.70;;;;;;5018877;28;20060;-69
2022/06/15 05:51:35;;;;;;;7.47;3.88;;;31.50;99.30;;;;;;5044582;28;20238;-70
2022/06/15 05:54:39;;;;;;;9.40;4.55;;;31.70;99.00;;;;;;5040348;28;20052;-69
2022/06/15 05:57:46;;;;;;;8.63;4.65;;;32.30;97.90;;;;;;5027793;28;20044;-70
2022/06/15 06:00:50;;;;;;;8.13;4.57;;;32.60;97.20;;;;;;5013283;28;20045;-69
2022/06/15 06:03:55;;;;;;;9.23;4.30;;;32.60;97.10;;;;;;5013822;28;20053;-69
2022/06/15 06:06:59;;;;;;;8.05;4.25;;;33.00;96.60;;;;;;5019126;28;20499;-69
2022/06/15 06:10:03;;;;;;;9.07;3.88;;;33.20;95.80;;;;;;5033505;28;20048;-69
2022/06/15 06:13:08;;;;;;;5.43;3.60;;;33.10;95.90;;;;;;5013775;28;20041;-70
2022/06/15 06:16:12;;;;;;;7.22;3.35;;;33.70;95.40;;;;;;5025407;28;20490;-69
2022/06/15 06:19:16;;;;;;;7.95;3.50;;;34.20;94.20;;;;;;5031141;28;20044;-70
2022/06/15 06:22:20;;;;;;;6.55;3.55;;;34.30;93.60;;;;;;5013774;28;20041;-70
2022/06/15 06:25:24;;;;;;;8.30;3.50;;;34.60;93.60;;;;;;5030594;28;20053;-69
2022/06/15 06:28:28;;;;;;;7.88;3.55;;;34.10;93.40;;;;;;5016681;28;20049;-70
2022/06/15 06:31:33;;;;;;;11.85;4.20;;;32.20;94.00;;;;;;5032279;28;20068;-70
2022/06/15 06:34:37;;;;;;;8.38;3.40;;;32.20;94.70;;;;;;5015348;28;20041;-70
2022/06/15 06:37:43;;;;;;;11.98;3.97;;;31.40;94.70;;;;;;5014019;28;20065;-69
2022/06/15 06:40:50;;;;;;;6.93;3.40;;;31.90;95.00;;;;;;5032899;28;20045;-69
2022/06/15 06:43:54;;;;;;;12.73;4.80;;;30.90;95.70;;;;;;5026341;28;20044;-69
2022/06/15 06:46:58;;;;;;;10.20;4.15;;;31.10;95.60;;;;;;5026121;28;20048;-68
2022/06/15 06:50:03;;;;;;;9.30;5.43;;;30.90;95.30;;;;;;5031044;28;20068;-69
2022/06/15 06:53:08;;;;;;;6.05;3.70;;;30.30;96.60;;;;;;5026289;28;20052;-71
2022/06/15 06:56:12;;;;;;;6.22;3.70;;;31.80;95.80;;;;;;5026736;28;20044;-72
2022/06/15 06:59:17;;;;;;;5.80;3.63;;;30.80;95.30;;;;;;5026009;28;20411;-71
2022/06/15 07:02:21;;;;;;;11.85;4.20;;;31.60;95.30;;;;;;5038054;28;20060;-71
2022/06/15 07:05:25;;;;;;;6.47;4.07;;;31.50;95.00;;;;;;5025602;28;20487;-72
2022/06/15 07:08:30;;;;;;;6.50;3.40;;;32.70;94.40;;;;;;5026022;28;20038;-70
2022/06/15 07:11:35;;;;;;;6.15;3.15;;;32.10;93.40;;;;;;5024555;28;20585;-70
2022/06/15 07:14:39;;;;;;;4.75;2.85;;;33.40;93.20;;;;;;5026135;28;20053;-70
2022/06/15 07:17:43;;;;;;;4.18;2.55;;;34.80;92.00;;;;;;5029018;28;20052;-69
2022/06/15 07:20:47;;;;;;;4.35;2.65;;;35.40;91.30;;;;;;5025155;28;20052;-69
2022/06/15 07:23:55;;;;;;;5.38;3.00;;;35.40;90.40;;;;;;5018698;28;20041;-70
2022/06/15 07:26:59;;;;;;;5.15;3.05;;;35.50;90.10;;;;;;5023931;28;20045;-70
2022/06/15 07:30:07;;;;;;;7.57;2.50;;;35.00;90.60;;;;;;5025798;28;20060;-71
2022/06/15 07:33:11;;;;;;;6.78;2.97;;;35.90;90.40;;;;;;5028567;28;20045;-70
2022/06/15 07:36:16;;;;;;;4.93;2.85;;;34.70;90.00;;;;;;5029869;28;20048;-71
2022/06/15 07:39:26;;;;;;;9.00;3.75;;;35.50;90.30;;;;;;5025866;28;20052;-69
2022/06/15 07:42:30;;;;;;;5.40;2.30;;;34.90;89.20;;;;;;5028729;28;20049;-70
2022/06/15 07:45:34;;;;;;;5.97;2.90;;;36.70;88.40;;;;;;5020050;28;20053;-69
2022/06/15 07:52:04;;;;;;;3.58;2.33;;;35.40;88.40;;;;;;5012656;28;20488;-70
2022/06/15 07:55:10;;;;;;;4.82;2.47;;;35.40;87.30;;;;;;5023131;28;20056;-70
2022/06/15 07:58:15;;;;;;;7.55;2.80;;;36.40;87.10;;;;;;5025058;28;20056;-69
2022/06/15 08:01:21;;;;;;;4.10;2.50;;;37.30;85.90;;;;;;5026164;28;20045;-71
2022/06/15 08:04:25;;;;;;;6.35;2.70;;;36.80;85.10;;;;;;5013493;28;20048;-71
2022/06/15 08:07:29;;;;;;;4.80;2.25;;;38.30;84.20;;;;;;5030601;28;20057;-71
2022/06/15 08:10:34;;;;;;;5.50;2.40;;;37.50;82.60;;;;;;5030420;28;20037;-70
2022/06/15 08:13:38;;;;;;;4.90;2.35;;;39.10;82.00;;;;;;5031768;28;20056;-68
2022/06/15 08:16:43;;;;;;;7.43;2.90;;;37.70;81.90;;;;;;5023837;28;20045;-70
2022/06/15 08:19:51;;;;;;;2.95;2.00;;;37.90;81.50;;;;;;5024646;28;20594;-70
2022/06/15 08:23:01;;;;;;;5.47;2.10;;;38.90;79.80;;;;;;5023971;28;20048;-71
2022/06/15 08:26:10;;;;;;;5.00;1.85;;;39.50;78.80;;;;;;5027567;28;20162;-71
2022/06/15 08:29:14;;;;;;;6.78;2.45;;;39.70;78.50;;;;;;5013480;28;20045;-70
2022/06/15 08:32:19;;;;;;;6.30;2.05;;;40.30;77.10;;;;;;5031261;28;20403;-71
2022/06/15 08:35:23;;;;;;;2.30;1.70;;;41.50;75.80;;;;;;5023358;28;20052;-71
2022/06/15 08:38:27;;;;;;;2.88;1.73;;;42.20;72.70;;;;;;5021359;28;20392;-70
2022/06/15 08:41:31;;;;;;;3.80;1.80;;;42.60;72.80;;;;;;5011465;28;20050;-70
2022/06/15 08:44:45;;;;;;;3.72;2.00;;;42.20;71.90;;;;;;5023912;28;20052;-70
2022/06/15 08:48:13;;;;;;;3.85;1.90;;;40.30;73.70;;;;;;5027557;28;20696;-71
2022/06/15 08:51:29;;;;;;;2.70;1.80;;;37.70;77.20;;;;;;5011037;28;20045;-71
2022/06/15 08:54:41;;;;;;;6.10;2.03;;;38.40;75.70;;;;;;5023781;28;20099;-70
2022/06/15 08:57:55;;;;;;;3.63;2.20;;;37.60;75.00;;;;;;5023989;28;20036;-71
2022/06/15 09:01:20;;;;;;;6.88;2.20;;;37.90;75.10;;;;;;5019604;28;20376;-72
2022/06/15 09:04:49;;;;;;;2.92;1.75;;;37.70;73.30;;;;;;5019741;28;20049;-70
2022/06/15 09:07:59;;;;;;;5.38;1.90;;;38.70;73.00;;;;;;5025928;28;20052;-70
2022/06/15 09:11:23;;;;;;;;;;;37.10;73.40;;;;;;5023934;28;20810;-71
2022/06/15 09:14:41;;;;;;;5.78;2.15;;;37.10;74.60;;;;;;5024303;28;19920;-71
2022/06/15 09:17:48;;;;;;;4.13;1.60;;;38.90;74.20;;;;;;5026679;28;20048;-70
2022/06/15 09:20:57;;;;;;;3.97;1.63;;;42.40;71.10;;;;;;5023659;28;20048;-71
2022/06/15 09:24:27;;;;;;;3.38;1.92;;;41.90;69.10;;;;;;5026965;28;20057;-71
2022/06/15 09:27:40;;;;;;;3.33;1.98;;;43.20;68.60;;;;;;5022470;28;20041;-70
2022/06/15 09:30:45;;;;;;;5.07;1.60;;;41.60;69.00;;;;;;5018914;28;20044;-71
2022/06/15 09:33:59;;;;;;;4.80;1.52;;;44.70;68.00;;;;;;5021619;28;20052;-71
2022/06/15 09:37:11;;;;;;;3.45;1.67;;;46.70;66.30;;;;;;5021777;28;20377;-70
2022/06/15 09:40:16;;;;;;;6.05;1.60;;;45.50;65.80;;;;;;5024656;28;20044;-70
2022/06/15 09:43:44;;;;;;;4.68;1.75;;;46.70;64.90;;;;;;5022893;28;20056;-69
2022/06/15 09:47:06;;;;;;;4.90;1.63;;;48.00;64.70;;;;;;5011017;28;20420;-70
2022/06/15 09:50:29;;;;;;;2.42;1.63;;;44.40;66.40;;;;;;5017014;28;20048;-69
2022/06/15 09:53:54;;;;;;;3.25;1.55;;;45.40;64.50;;;;;;5028715;28;20064;-69
2022/06/15 09:56:58;;;;;;;4.85;1.58;;;46.60;64.80;;;;;;5021976;28;20048;-69
2022/06/15 10:00:05;;;;;;;5.93;2.22;;;48.70;64.40;;;;;;5014591;28;20044;-70
2022/06/15 10:03:29;;;;;;;4.90;1.67;;;49.90;63.10;;;;;;5027197;28;20049;-71
2022/06/15 10:06:51;;;;;;;7.15;1.75;;;50.70;61.10;;;;;;5017434;28;20040;-70
2022/06/15 10:10:12;;;;;;;4.75;1.80;;;50.40;61.00;;;;;;5032270;28;20380;-71
2022/06/15 10:13:17;;;;;;;5.88;1.75;;;46.20;61.50;;;;;;5015949;28;20044;-69
2022/06/15 10:16:26;;;;;;;4.88;2.40;;;43.80;64.30;;;;;;5020336;28;20048;-69
2022/06/15 10:19:31;;;;;;;;;;;43.40;64.80;;;;;;5026400;28;20053;-70
2022/06/15 10:22:41;;;;;;;3.05;1.67;;;46.10;63.70;;;;;;5018607;28;19913;-70
2022/06/15 10:25:54;;;;;;;9.25;1.90;;;47.70;62.70;;;;;;5025345;28;20041;-71
2022/06/15 10:29:18;;;;;;;11.65;2.10;;;49.00;61.50;;;;;;5031135;28;20040;-71
2022/06/15 10:32:22;;;;;;;6.95;1.88;;;48.80;62.10;;;;;;5027966;28;20072;-70
2022/06/15 10:35:34;;;;;;;8.27;1.88;;;49.10;61.00;;;;;;5021599;28;20499;-71
2022/06/15 10:38:41;;;;;;;3.10;1.48;;;49.40;60.80;;;;;;5029194;28;20044;-71
2022/06/15 10:41:46;;;;;;;13.27;2.42;;;49.40;59.60;;;;;;5030218;28;20053;-70
2022/06/15 10:45:30;;;;;;;5.93;1.80;;;48.60;60.40;;;;;;5018706;28;20044;-69
2022/06/15 10:48:49;;;;;;;5.65;1.48;;;48.40;60.40;;;;;;5022491;28;20052;-70
2022/06/15 10:51:54;;;;;;;5.20;1.85;;;49.10;59.60;;;;;;5027166;28;20527;-71
2022/06/15 11:02:22;;;;;;;9.75;1.92;;;47.10;60.20;;;;;;5026201;28;20041;-70
2022/06/15 11:05:27;;;;;;;6.65;1.80;;;47.20;59.60;;;;;;5029505;28;20032;-71
2022/06/15 11:08:34;;;;;;;4.97;1.90;;;46.00;61.10;;;;;;5026836;28;20048;-70
2022/06/15 11:11:38;;;;;;;14.23;2.67;;;44.10;60.80;;;;;;5022726;28;20499;-69
2022/06/15 11:14:49;;;;;;;4.47;2.22;;;39.70;65.60;;;;;;5023092;28;20056;-68
2022/06/15 11:18:01;;;;;;;5.18;2.00;;;41.50;64.80;;;;;;5024152;28;20376;-70
2022/06/15 11:21:12;;;;;;;6.25;2.40;;;39.40;64.90;;;;;;5021330;28;20495;-71
2022/06/15 11:24:36;;;;;;;4.05;2.17;;;41.90;65.40;;;;;;5024757;28;20727;-71
2022/06/15 11:27:55;;;;;;;2.95;1.80;;;43.30;62.80;;;;;;5027468;28;20052;-71
2022/06/15 11:31:10;;;;;;;10.30;2.17;;;44.20;62.50;;;;;;5027818;28;20036;-72
2022/06/15 11:34:21;;;;;;;3.72;2.30;;;44.90;62.80;;;;;;5029295;28;20056;-69
2022/06/15 11:37:41;;;;;;;5.25;1.98;;;45.40;62.90;;;;;;5017573;28;20491;-70
2022/06/15 11:41:07;;;;;;;8.60;2.13;;;45.70;61.40;;;;;;5025649;28;20387;-71
2022/06/15 11:44:38;;;;;;;5.97;2.40;;;45.90;62.00;;;;;;5017041;28;20052;-70
2022/06/15 11:47:45;;;;;;;8.00;2.17;;;46.00;60.40;;;;;;5025894;28;20069;-69
2022/06/15 11:51:03;;;;;;;4.20;2.00;;;44.50;61.20;;;;;;5027124;28;20041;-69
2022/06/15 11:54:27;;;;;;;3.53;2.13;;;43.90;61.90;;;;;;5027310;28;20052;-68
2022/06/15 11:57:46;;;;;;;10.02;2.92;;;44.00;61.60;;;;;;5024027;28;20040;-70
2022/06/15 12:01:06;;;;;;;5.55;2.40;;;41.20;64.60;;;;;;5026319;28;21231;-68
2022/06/15 12:04:36;;;;;;;5.43;2.30;;;40.30;65.30;;;;;;5020188;28;20052;-69
2022/06/15 12:08:20;;;;;;;7.82;2.65;;;41.50;64.10;;;;;;5019176;28;20033;-71
2022/06/15 12:15:09;;;;;;;9.80;2.63;;;42.70;63.00;;;;;;5025966;28;20047;-69
2022/06/15 12:18:26;;;;;;;5.00;2.22;;;43.20;62.80;;;;;;5023931;28;20048;-70
2022/06/15 12:21:38;;;;;;;5.03;2.28;;;44.00;61.40;;;;;;5022573;28;20401;-70
2022/06/15 12:24:52;;;;;;;3.90;2.22;;;44.50;60.90;;;;;;5026728;28;20395;-70
2022/06/15 12:28:24;;;;;;;3.78;2.13;;;43.70;60.00;;;;;;5025982;28;20060;-66
2022/06/15 12:31:42;;;;;;;5.25;2.03;;;43.20;60.60;;;;;;5017178;28;20159;-69
2022/06/15 12:35:10;;;;;;;7.15;2.10;;;42.80;60.00;;;;;;5021867;28;20048;-68
2022/06/15 12:38:33;;;;;;;5.85;1.92;;;41.80;60.80;;;;;;5019295;28;20052;-69
2022/06/15 12:45:15;;;;;;;3.80;1.92;;;41.60;60.20;;;;;;5022489;28;20048;-68
2022/06/15 12:48:34;;;;;;;9.32;1.65;;;41.60;60.80;;;;;;5022596;28;20037;-70
2022/06/15 12:51:46;;;;;;;4.13;2.60;;;41.40;61.20;;;;;;5020351;28;20044;-70
2022/06/15 12:55:00;;;;;;;3.88;2.08;;;41.80;61.20;;;;;;5023593;28;20503;-69
2022/06/15 12:58:19;;;;;;;3.65;2.05;;;41.70;60.10;;;;;;5024684;28;20504;-71
2022/06/15 13:01:32;;;;;;;6.68;2.03;;;41.60;61.70;;;;;;5025771;28;20403;-68
2022/06/15 13:04:58;;;;;;;5.75;2.25;;;41.60;61.80;;;;;;5026127;28;20048;-70
2022/06/15 13:08:11;;;;;;;5.07;1.92;;;41.30;61.20;;;;;;5028466;28;20394;-69
2022/06/15 13:11:17;;;;;;;6.95;2.55;;;41.30;60.00;;;;;;5025865;28;20104;-69
2022/06/15 13:14:35;;;;;;;11.35;2.60;;;41.30;60.50;;;;;;5020687;28;20388;-67
2022/06/15 13:18:09;;;;;;;3.67;2.00;;;40.80;61.00;;;;;;5020473;28;20056;-69
2022/06/15 13:21:18;;;;;;;6.70;2.20;;;40.80;61.50;;;;;;5028998;28;20054;-68
2022/06/15 13:24:24;;;;;;;4.77;2.33;;;38.70;59.70;;;;;;5022083;28;20052;-69
2022/06/15 13:27:39;;;;;;;5.10;2.10;;;38.90;63.00;;;;;;5022078;28;20040;-68
2022/06/15 13:30:49;;;;;;;5.05;1.92;;;39.50;62.80;;;;;;5020292;28;20024;-70
2022/06/15 13:33:53;;;;;;;5.90;2.20;;;40.20;61.00;;;;;;5024216;28;20037;-70
2022/06/15 13:37:23;;;;;;;4.20;1.90;;;40.60;61.20;;;;;;5017841;28;20052;-67
2022/06/15 13:40:58;;;;;;;6.15;2.00;;;38.00;61.30;;;;;;5028902;28;20372;-67
2022/06/15 13:44:06;;;;;;;4.95;1.73;;;39.00;62.20;;;;;;5028658;28;20041;-69
2022/06/15 13:47:11;;;;;;;5.10;1.95;;;39.50;61.10;;;;;;5027902;28;20091;-67
2022/06/15 13:50:17;;;;;;;2.78;1.48;;;39.80;61.10;;;;;;5022559;28;20558;-68
2022/06/15 13:53:46;;;;;;;4.72;1.90;;;39.60;60.70;;;;;;5020909;28;20043;-67
2022/06/15 13:57:13;;;;;;;4.40;2.38;;;39.50;61.10;;;;;;5022866;28;20056;-69
2022/06/15 14:00:23;;;;;;;6.90;1.88;;;39.20;61.20;;;;;;5015446;28;20037;-67
2022/06/15 14:03:37;;;;;;;3.63;2.00;;;39.30;61.40;;;;;;5025451;28;20388;-70
2022/06/15 14:06:51;;;;;;;2.92;1.95;;;39.40;60.60;;;;;;5023955;28;20603;-68
2022/06/15 14:10:21;;;;;;;15.98;3.15;;;39.30;60.50;;;;;;5029342;28;20044;-70
2022/06/15 14:13:42;;;;;;;4.33;2.30;;;38.80;61.50;;;;;;5005839;28;20052;-68
2022/06/15 14:16:49;;;;;;;6.50;2.63;;;37.90;62.10;;;;;;5028081;28;20060;-66
2022/06/15 14:20:05;;;;;;;8.70;2.90;;;35.90;62.80;;;;;;5022875;28;20695;-67
2022/06/15 14:23:10;;;;;;;6.18;2.40;;;35.60;65.10;;;;;;5032990;28;20056;-68
2022/06/15 14:26:20;;;;;;;4.47;2.10;;;35.70;65.20;;;;;;5021064;28;20396;-68
2022/06/15 14:29:30;;;;;;;10.45;2.30;;;35.80;65.70;;;;;;5026556;28;20036;-68
2022/06/15 14:32:41;;;;;;;3.35;2.17;;;35.80;66.00;;;;;;5021386;28;20385;-68
2022/06/15 14:36:05;;;;;;;10.45;2.22;;;35.70;65.20;;;;;;5031682;28;20072;-69
2022/06/15 14:39:13;;;;;;;8.68;2.47;;;35.50;66.30;;;;;;5029755;28;20049;-69
2022/06/15 14:42:20;;;;;;;6.63;2.47;;;35.30;67.40;;;;;;5025202;28;20037;-69
2022/06/15 14:45:30;;;;;;;11.00;3.28;;;35.00;66.90;;;;;;5027728;28;20049;-69
2022/06/15 14:48:36;;;;;;;7.28;2.83;;;34.80;68.00;;;;;;5022988;28;20036;-68
2022/06/15 14:51:40;;;;;;;8.23;3.08;;;34.50;68.60;;;;;;5025113;28;20036;-67
2022/06/15 14:54:47;;;;;;;8.02;2.28;;;34.30;69.10;;;;;;5027028;28;20052;-67
2022/06/15 14:58:06;;;;;;;4.82;3.03;;;34.10;69.10;;;;;;5027189;28;20040;-67
2022/06/15 15:01:12;;;;;;;6.85;2.55;;;33.90;69.70;;;;;;5024227;28;20061;-67
2022/06/15 15:04:19;;;;;;;10.30;2.42;;;33.70;70.40;;;;;;5025458;28;20511;-67
2022/06/15 15:11:09;;;;;;;7.43;2.92;;;33.20;71.20;;;;;;5027025;28;20033;-67
2022/06/15 15:14:13;;;;;;;6.63;2.70;;;32.90;71.80;;;;;;5027532;28;20078;-67
2022/06/15 15:17:18;;;;;;;10.50;3.00;;;32.60;72.60;;;;;;5028978;28;20040;-67
2022/06/15 15:20:44;;;;;;;5.55;2.80;;;32.40;73.40;;;;;;5030392;28;20602;-67
2022/06/15 15:23:48;;;;;;;6.78;3.13;;;32.10;74.50;;;;;;5022505;28;20045;-70
2022/06/15 15:27:17;;;;;;;7.05;2.60;;;31.90;75.70;;;;;;5030560;28;20045;-69
2022/06/15 15:34:26;;;;;;;7.15;3.30;;;31.50;76.90;;;;;;5031679;28;20056;-69
2022/06/15 15:37:36;;;;;;;10.55;3.10;;;31.20;77.20;;;;;;5032629;28;20049;-69
2022/06/15 15:40:42;;;;;;;10.15;3.20;;;31.10;77.90;;;;;;5031633;28;20479;-68
2022/06/15 15:43:45;;;;;;;6.38;3.20;;;31.00;77.80;;;;;;5023244;28;20385;-69
2022/06/15 15:46:51;;;;;;;7.07;3.00;;;30.90;78.40;;;;;;5031435;28;20052;-70
2022/06/15 15:49:56;;;;;;;8.23;3.65;;;30.90;78.90;;;;;;5021992;28;20045;-70
2022/06/15 15:53:01;;;;;;;6.18;3.13;;;30.70;79.50;;;;;;5032057;28;20044;-69
2022/06/15 15:56:05;;;;;;;8.38;3.38;;;30.70;80.00;;;;;;5011888;28;20053;-69
2022/06/15 15:59:14;;;;;;;20.23;3.65;;;30.70;80.70;;;;;;5012181;28;20061;-69
2022/06/15 16:02:26;;;;;;;5.90;3.08;;;30.60;81.10;;;;;;5027412;28;20176;-69
2022/06/15 16:05:29;;;;;;;9.70;2.83;;;30.50;81.30;;;;;;5029070;28;20052;-69
2022/06/15 16:08:34;;;;;;;6.32;3.22;;;30.50;81.00;;;;;;5031770;28;20044;-69
2022/06/15 16:11:37;;;;;;;8.63;3.35;;;30.50;81.00;;;;;;5030579;28;20404;-69
2022/06/15 16:14:43;;;;;;;6.28;3.40;;;30.50;81.30;;;;;;5031095;28;20112;-69
2022/06/15 16:17:51;;;;;;;7.97;3.17;;;30.50;81.30;;;;;;5029662;28;20044;-69
2022/06/15 16:20:57;;;;;;;4.55;2.90;;;30.50;81.40;;;;;;5030665;28;20372;-69
2022/06/15 16:24:02;;;;;;;8.40;3.20;;;30.50;81.90;;;;;;5030595;28;20037;-69
2022/06/15 16:27:07;;;;;;;7.85;3.30;;;30.40;82.00;;;;;;5030917;28;20052;-70
2022/06/15 16:30:12;;;;;;;8.70;3.03;;;30.30;82.50;;;;;;5030595;28;20056;-69
2022/06/15 16:33:18;;;;;;;4.43;2.20;;;30.00;80.90;;;;;;5029685;28;20511;-69
2022/06/15 16:36:22;;;;;;;9.90;3.63;;;29.90;79.30;;;;;;5030716;28;20048;-69
2022/06/15 16:39:26;;;;;;;4.85;2.78;;;29.70;79.80;;;;;;5030551;28;20048;-68
2022/06/15 16:42:31;;;;;;;4.82;2.47;;;29.60;80.60;;;;;;5030612;28;20036;-70
2022/06/15 16:45:36;;;;;;;6.07;2.60;;;29.50;79.70;;;;;;5030799;28;20045;-69
2022/06/15 16:48:40;;;;;;;10.90;3.13;;;29.40;80.00;;;;;;5031290;28;20396;-68
2022/06/15 16:51:44;;;;;;;6.95;2.33;;;29.40;80.30;;;;;;5031001;28;20053;-69
2022/06/15 16:54:49;;;;;;;3.53;2.60;;;29.40;80.00;;;;;;5030754;28;20045;-69
2022/06/15 16:57:53;;;;;;;5.18;2.30;;;29.40;80.00;;;;;;5030500;28;20045;-69
2022/06/15 17:00:57;;;;;;;6.72;2.70;;;29.30;80.00;;;;;;5030954;28;20064;-69